Terminal Aerodrome Forecast
Issued by NWS Austin/San Antonio, TX

Home | Current Version | Previous Version | Text Only | Print | Product List | Glossary On
Versions: 1 2 3 4 5 6 7 8 9 10 11 12 13 14 15 16 17 18 19 20 21 22 23 24 25 26
000
FTUS44 KEWX 230233 AAB
TAFSAT
TAF AMD
KSAT 230233Z 2303/2406 12010KT P6SM BKN015 OVC080
     FM230400 12004KT P6SM BKN010
     FM230900 14005KT 5SM BR OVC006
     FM231500 15009KT 6SM BR VCSH OVC015
     FM232000 15013KT P6SM VCTS BKN030CB BKN050
     FM240500 12006KT 3SM TSRA BR OVC015CB=

USA.gov is the U.S. government's official web portal to all federal, state and local government web resources and services.